createdAt,value
2019-04-14T00:00:29.300Z,13.27
2019-04-14T00:03:12.922Z,15.53
2019-04-14T00:05:43.375Z,15.73
2019-04-14T00:08:11.918Z,16.00
2019-04-14T00:10:40.457Z,15.63
2019-04-14T00:13:09.076Z,15.97
2019-04-14T00:15:42.691Z,16.53
2019-04-14T00:18:09.679Z,16.37
2019-04-14T00:20:38.307Z,14.77
2019-04-14T00:23:06.764Z,16.30
2019-04-14T00:25:35.216Z,16.57
2019-04-14T00:28:03.702Z,17.53
2019-04-14T00:30:32.180Z,16.00
2019-04-14T00:33:11.294Z,17.23
2019-04-14T00:35:58.074Z,15.30
2019-04-14T00:38:30.808Z,15.00
2019-04-14T00:41:07.184Z,16.13
2019-04-14T00:43:37.483Z,14.87
2019-04-14T00:46:07.948Z,14.30
2019-04-14T00:48:36.703Z,16.20
2019-04-14T00:51:05.279Z,17.13
2019-04-14T00:53:33.923Z,14.13
2019-04-14T00:56:02.567Z,14.57
2019-04-14T00:58:31.967Z,16.07
2019-04-14T01:01:01.225Z,16.63
2019-04-14T01:03:30.862Z,16.53
2019-04-14T01:05:59.576Z,15.00
2019-04-14T01:08:29.164Z,14.30
2019-04-14T01:10:58.354Z,16.27
2019-04-14T01:13:27.019Z,18.37
2019-04-14T01:16:03.751Z,15.93
2019-04-14T01:18:25.670Z,16.03
2019-04-14T01:20:54.149Z,16.13
2019-04-14T01:23:23.873Z,17.37
2019-04-14T01:25:54.105Z,15.17
2019-04-14T01:28:22.720Z,15.97
2019-04-14T01:30:52.198Z,16.20
2019-04-14T01:33:20.866Z,16.33
2019-04-14T01:35:49.355Z,15.97
2019-04-14T01:38:18.957Z,17.83
2019-04-14T01:40:48.749Z,16.40
2019-04-14T01:43:17.445Z,14.30
2019-04-14T01:45:58.140Z,16.77
2019-04-14T01:48:17.114Z,15.07
2019-04-14T01:51:06.971Z,15.87
2019-04-14T01:53:46.793Z,17.20
2019-04-14T01:56:25.758Z,16.57
2019-04-14T01:58:55.928Z,16.50
2019-04-14T02:01:26.129Z,16.40
2019-04-14T02:04:14.041Z,15.90
2019-04-14T02:06:42.590Z,13.97
2019-04-14T02:09:12.057Z,15.83
2019-04-14T02:11:40.787Z,16.20
2019-04-14T02:14:10.319Z,16.70
2019-04-14T02:16:44.495Z,16.00
2019-04-14T02:19:09.138Z,16.03
2019-04-14T02:21:38.764Z,18.97
2019-04-14T02:24:07.468Z,21.40
2019-04-14T02:26:37.221Z,14.57
2019-04-14T02:29:05.892Z,19.00
2019-04-14T02:32:04.735Z,16.73
2019-04-14T02:37:05.302Z,16.17
2019-04-14T02:42:17.408Z,17.27
2019-04-14T02:44:36.456Z,17.90
2019-04-14T02:49:38.722Z,18.97
2019-04-14T02:52:04.974Z,14.90
2019-04-14T02:54:43.641Z,16.20
2019-04-14T02:57:11.631Z,17.37
2019-04-14T02:59:41.523Z,18.10
2019-04-14T03:04:34.048Z,18.43
2019-04-14T03:07:05.213Z,18.37
2019-04-14T03:12:00.820Z,15.97
2019-04-14T03:14:43.497Z,18.60
2019-04-14T03:20:13.988Z,18.17
2019-04-14T03:25:16.036Z,16.83
2019-04-14T03:27:55.116Z,15.93
2019-04-14T03:33:23.489Z,19.10
2019-04-14T03:36:05.792Z,18.30
2019-04-14T03:38:02.517Z,19.90
2019-04-14T03:43:03.757Z,19.33
2019-04-14T03:45:39.388Z,17.80
2019-04-14T03:50:29.281Z,20.53
2019-04-14T03:53:05.854Z,18.63
2019-04-14T03:55:20.347Z,17.60
2019-04-14T03:57:37.453Z,18.13
2019-04-14T04:00:07.487Z,17.97
2019-04-14T04:02:36.017Z,18.43
2019-04-14T04:05:06.440Z,18.47
2019-04-14T04:07:35.024Z,18.43
2019-04-14T04:10:07.097Z,21.03
2019-04-14T04:12:35.845Z,20.00
2019-04-14T04:15:06.087Z,17.83
2019-04-14T04:17:38.921Z,20.20
2019-04-14T04:20:13.069Z,23.07
2019-04-14T04:23:03.005Z,19.53
2019-04-14T04:25:36.098Z,19.37
2019-04-14T04:28:06.279Z,17.90
2019-04-14T04:30:51.621Z,23.03
2019-04-14T04:33:22.091Z,19.03
2019-04-14T04:35:54.991Z,17.53
2019-04-14T04:38:33.909Z,20.93
2019-04-14T04:41:03.660Z,19.90
2019-04-14T04:43:32.254Z,19.57
2019-04-14T04:46:00.745Z,19.20
2019-04-14T04:48:30.591Z,20.30
2019-04-14T04:50:59.255Z,20.63
2019-04-14T04:53:28.802Z,19.03
2019-04-14T04:55:57.401Z,19.37
2019-04-14T04:58:26.239Z,19.87
2019-04-14T05:00:56.347Z,18.17
2019-04-14T05:03:25.391Z,18.57
2019-04-14T05:06:30.978Z,16.13
2019-04-14T05:09:01.375Z,17.67
2019-04-14T05:11:31.711Z,17.93
2019-04-14T05:14:02.253Z,21.37
2019-04-14T05:16:30.874Z,20.60
2019-04-14T05:19:12.023Z,16.60
2019-04-14T05:21:29.992Z,17.67
2019-04-14T05:23:58.607Z,19.73
2019-04-14T05:26:27.063Z,17.33
2019-04-14T05:28:55.558Z,18.43
2019-04-14T05:31:27.330Z,19.23
2019-04-14T05:33:55.240Z,21.30
2019-04-14T05:36:23.884Z,19.70
2019-04-14T05:38:52.361Z,18.07
2019-04-14T05:41:20.818Z,16.63
2019-04-14T05:43:54.945Z,18.80
2019-04-14T05:46:20.615Z,18.20
2019-04-14T05:48:49.358Z,21.07
2019-04-14T05:51:19.899Z,14.80
2019-04-14T05:53:48.120Z,21.50
2019-04-14T05:56:16.697Z,17.70
2019-04-14T05:58:45.232Z,18.40
2019-04-14T06:01:13.950Z,19.27
2019-04-14T06:03:43.245Z,19.10
2019-04-14T06:06:11.794Z,16.70
2019-04-14T06:08:40.279Z,18.27
2019-04-14T06:11:08.819Z,21.57
2019-04-14T06:13:37.301Z,16.93
2019-04-14T06:16:05.834Z,19.00
2019-04-14T06:18:34.309Z,19.53
2019-04-14T06:21:02.793Z,20.63
2019-04-14T06:23:31.268Z,17.63
2019-04-14T06:25:59.762Z,18.03
2019-04-14T06:28:28.274Z,19.87
2019-04-14T06:31:10.613Z,17.50
2019-04-14T06:33:44.630Z,18.37
2019-04-14T06:36:14.788Z,18.20
2019-04-14T06:38:44.929Z,17.30
2019-04-14T06:41:15.191Z,17.03
2019-04-14T06:43:48.962Z,13.93
2019-04-14T06:46:13.857Z,14.23
2019-04-14T06:48:42.335Z,12.87
2019-04-14T06:51:10.833Z,12.87
2019-04-14T06:53:39.299Z,13.13
2019-04-14T06:56:07.784Z,11.90
2019-04-14T06:58:36.269Z,10.33
2019-04-14T07:01:04.824Z,10.37
2019-04-14T07:03:33.296Z,10.47
2019-04-14T07:06:01.809Z,9.47
2019-04-14T07:08:30.301Z,9.73
2019-04-14T07:10:58.787Z,10.37
2019-04-14T07:13:27.233Z,9.17
2019-04-14T07:15:55.782Z,8.93
2019-04-14T07:18:24.377Z,9.00
2019-04-14T07:20:52.862Z,9.07
2019-04-14T07:23:21.330Z,8.13
2019-04-14T07:25:49.804Z,9.27
2019-04-14T07:28:18.288Z,8.60
2019-04-14T07:31:04.862Z,9.07
2019-04-14T07:33:41.208Z,8.00
2019-04-14T07:36:17.332Z,8.87
2019-04-14T07:38:50.344Z,8.77
2019-04-14T07:41:20.482Z,9.57
2019-04-14T07:43:50.582Z,8.37
2019-04-14T07:46:20.684Z,9.70
2019-04-14T07:48:59.693Z,9.03
2019-04-14T07:51:38.916Z,8.97
2019-04-14T07:54:09.024Z,9.77
2019-04-14T07:56:55.740Z,9.70
2019-04-14T07:59:31.884Z,7.83
2019-04-14T08:02:01.984Z,8.53
2019-04-14T08:04:32.088Z,6.93
2019-04-14T08:07:00.552Z,8.10
2019-04-14T08:09:29.024Z,8.97
2019-04-14T08:11:57.487Z,9.67
2019-04-14T08:14:27.158Z,8.13
2019-04-14T08:16:55.694Z,8.93
2019-04-14T08:19:24.185Z,8.80
2019-04-14T08:21:52.670Z,9.13
2019-04-14T08:24:21.188Z,9.07
2019-04-14T08:26:49.649Z,11.00
2019-04-14T08:29:18.126Z,8.67
2019-04-14T08:31:46.621Z,9.07
2019-04-14T08:34:15.163Z,9.07
2019-04-14T08:36:43.643Z,10.27
2019-04-14T08:39:12.115Z,9.97
2019-04-14T08:41:42.215Z,10.57
2019-04-14T08:44:18.430Z,11.17
2019-04-14T08:47:06.731Z,8.87
2019-04-14T08:49:42.674Z,10.90
2019-04-14T08:52:12.789Z,11.70
2019-04-14T08:54:59.378Z,10.50
2019-04-14T08:57:46.024Z,12.43
2019-04-14T09:00:19.367Z,12.07
2019-04-14T09:02:49.505Z,10.23
2019-04-14T09:05:31.554Z,12.53
2019-04-14T09:08:10.592Z,10.23
2019-04-14T09:10:40.711Z,10.40
2019-04-14T09:13:09.240Z,9.93
2019-04-14T09:15:37.784Z,10.23
2019-04-14T09:18:06.260Z,11.43
2019-04-14T09:20:34.726Z,10.97
2019-04-14T09:23:03.281Z,11.17
2019-04-14T09:25:31.740Z,9.67
2019-04-14T09:28:00.228Z,11.10
2019-04-14T09:30:28.694Z,10.43
2019-04-14T09:32:57.414Z,10.97
2019-04-14T09:35:25.880Z,9.87
2019-04-14T09:37:54.350Z,9.80
2019-04-14T09:40:22.804Z,10.13
2019-04-14T09:42:51.308Z,10.17
2019-04-14T09:45:19.838Z,9.40
2019-04-14T09:47:48.328Z,8.80
2019-04-14T09:50:16.848Z,9.10
2019-04-14T09:52:45.317Z,8.53
2019-04-14T09:55:13.781Z,9.50
2019-04-14T09:57:42.251Z,9.37
2019-04-14T10:00:12.817Z,8.13
2019-04-14T10:02:41.347Z,8.20
2019-04-14T10:05:09.947Z,8.17
2019-04-14T10:07:38.422Z,7.30
2019-04-14T10:10:07.592Z,8.53
2019-04-14T10:12:36.226Z,7.27
2019-04-14T10:15:05.625Z,6.23
2019-04-14T10:17:34.098Z,7.63
2019-04-14T10:20:02.579Z,7.60
2019-04-14T10:22:34.266Z,7.60
2019-04-14T10:25:01.233Z,8.90
2019-04-14T10:27:29.701Z,7.90
2019-04-14T10:29:58.189Z,8.03
2019-04-14T10:32:26.649Z,8.33
2019-04-14T10:34:55.135Z,8.80
2019-04-14T10:37:23.593Z,7.30
2019-04-14T10:39:52.069Z,6.80
2019-04-14T10:42:20.551Z,9.27
2019-04-14T10:44:49.093Z,9.47
2019-04-14T10:47:17.563Z,9.17
2019-04-14T10:49:46.049Z,8.00
2019-04-14T10:52:14.517Z,10.43
2019-04-14T10:54:42.998Z,8.07
2019-04-14T10:57:11.466Z,8.43
2019-04-14T10:59:39.968Z,7.90
2019-04-14T11:02:08.496Z,7.30
2019-04-14T11:04:36.978Z,8.27
2019-04-14T11:07:07.070Z,7.93
2019-04-14T11:09:35.626Z,7.57
2019-04-14T11:12:04.257Z,7.83
2019-04-14T11:14:32.769Z,7.30
2019-04-14T11:17:01.335Z,7.73
2019-04-14T11:19:29.879Z,7.63
2019-04-14T11:21:58.407Z,8.33
2019-04-14T11:24:26.982Z,7.93
2019-04-14T11:26:55.508Z,8.40
2019-04-14T11:29:23.966Z,8.47
2019-04-14T11:31:56.492Z,8.33
2019-04-14T11:34:38.960Z,9.43
2019-04-14T11:37:14.933Z,9.20
2019-04-14T11:39:45.250Z,8.10
2019-04-14T11:42:13.829Z,12.73
2019-04-14T11:44:42.352Z,9.60
2019-04-14T11:47:11.115Z,10.23
2019-04-14T11:49:39.564Z,8.73
2019-04-14T11:52:08.065Z,8.10
2019-04-14T11:54:36.600Z,10.50
2019-04-14T11:57:05.093Z,8.27
2019-04-14T11:59:35.190Z,9.83
2019-04-14T12:02:05.386Z,10.13
2019-04-14T12:04:41.302Z,10.10
2019-04-14T12:07:14.173Z,11.63
2019-04-14T12:09:46.665Z,9.43
2019-04-14T12:12:15.247Z,9.17
2019-04-14T12:14:43.807Z,10.63
2019-04-14T12:17:12.335Z,9.57
2019-04-14T12:19:40.904Z,11.60
2019-04-14T12:22:09.384Z,11.30
2019-04-14T12:24:37.861Z,10.20
2019-04-14T12:27:06.328Z,11.83
2019-04-14T12:29:34.905Z,10.83
2019-04-14T12:32:04.435Z,12.00
2019-04-14T12:34:32.887Z,12.47
2019-04-14T12:37:01.450Z,13.87
2019-04-14T12:39:30.085Z,15.20
2019-04-14T12:42:00.209Z,14.47
2019-04-14T12:44:48.425Z,13.93
2019-04-14T12:47:21.086Z,15.83
2019-04-14T12:49:51.201Z,15.07
2019-04-14T12:52:22.103Z,16.30
2019-04-14T12:54:50.755Z,17.17
2019-04-14T12:57:20.864Z,15.70
2019-04-14T12:59:49.612Z,17.17
2019-04-14T13:02:19.707Z,16.73
2019-04-14T13:04:48.193Z,17.73
2019-04-14T13:07:16.670Z,18.50
2019-04-14T13:09:45.224Z,20.60
2019-04-14T13:12:13.904Z,19.90
2019-04-14T13:14:42.393Z,20.30
2019-04-14T13:17:10.958Z,19.17
2019-04-14T13:19:39.440Z,17.83
2019-04-14T13:22:07.908Z,19.93
2019-04-14T13:24:36.546Z,19.73
2019-04-14T13:27:05.260Z,20.03
2019-04-14T13:29:33.912Z,23.27
2019-04-14T13:32:02.452Z,21.30
2019-04-14T13:34:30.943Z,22.47
2019-04-14T13:36:59.420Z,21.00
2019-04-14T13:39:27.952Z,22.50
2019-04-14T13:41:56.435Z,23.73
2019-04-14T13:44:24.910Z,22.43
2019-04-14T13:46:53.389Z,23.30
2019-04-14T13:49:21.873Z,22.03
2019-04-14T13:51:50.416Z,25.13
2019-04-14T13:54:18.895Z,24.43
2019-04-14T13:56:47.380Z,22.03
2019-04-14T13:59:16.117Z,23.00
2019-04-14T14:01:44.971Z,26.73
2019-04-14T14:04:14.009Z,23.43
2019-04-14T14:06:42.586Z,24.43
2019-04-14T14:09:11.739Z,22.60
2019-04-14T14:12:00.050Z,26.10
2019-04-14T14:14:36.145Z,26.23
2019-04-14T14:17:09.261Z,26.23
2019-04-14T14:19:51.409Z,23.83
2019-04-14T14:22:36.539Z,23.93
2019-04-14T14:25:10.057Z,24.30
2019-04-14T14:27:38.539Z,25.67
2019-04-14T14:30:09.827Z,26.90
2019-04-14T14:32:38.289Z,23.90
2019-04-14T14:35:07.201Z,26.27
2019-04-14T14:37:35.766Z,25.80
2019-04-14T14:40:06.039Z,26.60
2019-04-14T14:42:34.532Z,27.47
2019-04-14T14:45:16.889Z,28.23
2019-04-14T14:47:50.057Z,26.90
2019-04-14T14:50:36.346Z,27.53
2019-04-14T14:53:11.915Z,29.53
2019-04-14T14:55:35.031Z,29.53
2019-04-14T14:58:03.518Z,32.10
2019-04-14T15:00:33.302Z,28.87
2019-04-14T15:03:01.891Z,31.20
2019-04-14T15:05:30.370Z,28.77
2019-04-14T15:07:58.878Z,28.13
2019-04-14T15:10:27.411Z,29.03
2019-04-14T15:12:55.899Z,33.10
2019-04-14T15:15:24.369Z,31.43
2019-04-14T15:17:52.864Z,32.87
2019-04-14T15:20:21.406Z,32.13
2019-04-14T15:22:52.289Z,31.70
2019-04-14T15:25:20.086Z,31.43
2019-04-14T15:27:48.574Z,31.93
2019-04-14T15:30:21.572Z,42.10
2019-04-14T15:32:50.224Z,39.87
2019-04-14T15:35:18.695Z,39.00
2019-04-14T15:37:47.180Z,31.27
2019-04-14T15:40:16.014Z,32.10
2019-04-14T15:42:44.492Z,29.47
2019-04-14T15:45:14.104Z,29.77
2019-04-14T15:47:42.890Z,29.53
2019-04-14T15:50:11.606Z,40.67
2019-04-14T15:52:40.089Z,34.23
2019-04-14T15:55:08.918Z,34.70
2019-04-14T15:57:39.049Z,33.17
2019-04-14T16:00:18.925Z,37.10
2019-04-14T16:02:51.743Z,31.07
2019-04-14T16:05:24.547Z,36.37
2019-04-14T16:08:03.532Z,34.00
2019-04-14T16:10:33.657Z,32.47
2019-04-14T16:13:03.767Z,31.23
2019-04-14T16:15:51.985Z,44.00
2019-04-14T16:18:31.101Z,36.67
2019-04-14T16:20:59.597Z,29.67
2019-04-14T16:23:28.061Z,31.43
2019-04-14T16:26:01.112Z,28.73
2019-04-14T16:28:31.224Z,29.77
2019-04-14T16:31:10.323Z,31.27
2019-04-14T16:33:43.295Z,29.90
2019-04-14T16:36:11.791Z,38.67
2019-04-14T16:38:40.294Z,39.50
2019-04-14T16:41:08.846Z,44.63
2019-04-14T16:43:37.318Z,37.77
2019-04-14T16:46:05.805Z,32.07
2019-04-14T16:48:34.457Z,34.17
2019-04-14T16:51:03.825Z,37.93
2019-04-14T16:53:33.938Z,37.00
2019-04-14T16:56:13.246Z,34.80
2019-04-14T16:58:51.874Z,35.90
2019-04-14T17:01:24.653Z,39.03
2019-04-14T17:03:53.723Z,43.92
2019-04-14T17:06:22.789Z,41.75
2019-04-14T17:08:51.850Z,36.93
2019-04-14T17:11:20.898Z,35.98
2019-04-14T17:13:51.608Z,31.27
2019-04-14T17:16:34.240Z,33.05
2019-04-14T17:19:07.331Z,37.83
2019-04-14T17:21:49.470Z,45.13
2019-04-14T17:24:20.310Z,37.75
2019-04-14T17:26:50.410Z,38.53
2019-04-14T17:29:26.764Z,35.00
2019-04-14T17:31:56.878Z,38.50
2019-04-14T17:34:39.022Z,35.37
2019-04-14T17:37:09.117Z,33.23
2019-04-14T17:39:47.718Z,38.00
2019-04-14T17:42:27.014Z,32.93
2019-04-14T17:45:02.832Z,34.30
2019-04-14T17:47:42.640Z,36.73
2019-04-14T17:50:16.949Z,41.27
2019-04-14T17:52:47.064Z,42.10
2019-04-14T17:55:32.725Z,58.87
2019-04-14T17:58:08.873Z,46.20
2019-04-14T18:00:39.164Z,39.57
2019-04-14T18:03:21.196Z,40.40
2019-04-14T18:05:54.014Z,38.90
2019-04-14T18:08:30.357Z,40.20
2019-04-14T18:11:00.474Z,45.53
2019-04-14T18:13:36.422Z,47.60
2019-04-14T18:16:18.710Z,45.00
2019-04-14T18:19:05.128Z,52.57
2019-04-14T18:21:33.633Z,40.07
2019-04-14T18:24:02.521Z,40.00
2019-04-14T18:26:31.011Z,38.67
2019-04-14T18:29:10.103Z,45.23
2019-04-14T18:31:46.263Z,40.63
2019-04-14T18:34:16.361Z,43.47
2019-04-14T18:36:58.332Z,48.63
2019-04-14T18:39:44.723Z,43.33
2019-04-14T18:42:17.583Z,43.50
2019-04-14T18:44:50.417Z,42.73
2019-04-14T18:47:23.381Z,41.33
2019-04-14T18:50:02.584Z,47.17
2019-04-14T18:52:32.719Z,41.60
2019-04-14T18:55:02.823Z,40.77
2019-04-14T18:57:48.996Z,40.80
2019-04-14T19:00:19.124Z,36.07
2019-04-14T19:02:47.599Z,38.73
2019-04-14T19:05:16.150Z,43.73
2019-04-14T19:07:44.626Z,52.17
2019-04-14T19:10:13.782Z,37.87
2019-04-14T19:12:43.981Z,38.57
2019-04-14T19:15:14.446Z,36.87
2019-04-14T19:18:02.907Z,37.97
2019-04-14T19:20:31.497Z,35.17
2019-04-14T19:22:59.968Z,36.30
2019-04-14T19:25:28.440Z,38.10
2019-04-14T19:27:56.915Z,34.23
2019-04-14T19:30:25.399Z,36.23
2019-04-14T19:32:53.863Z,38.27
2019-04-14T19:35:22.352Z,39.73
2019-04-14T19:37:50.812Z,38.53
2019-04-14T19:40:19.489Z,36.00
2019-04-14T19:42:48.020Z,36.00
2019-04-14T19:45:16.500Z,33.27
2019-04-14T19:47:44.987Z,41.17
2019-04-14T19:50:13.893Z,32.30
2019-04-14T19:52:42.381Z,36.30
2019-04-14T19:55:20.388Z,33.03
2019-04-14T19:57:41.135Z,30.03
2019-04-14T20:00:09.738Z,32.17
2019-04-14T20:02:38.234Z,31.60
2019-04-14T20:05:07.638Z,31.70
2019-04-14T20:07:36.127Z,31.77
2019-04-14T20:10:06.719Z,31.60
2019-04-14T20:12:35.272Z,31.83
2019-04-14T20:15:04.611Z,33.00
2019-04-14T20:17:34.742Z,29.50
2019-04-14T20:20:21.937Z,31.47
2019-04-14T20:22:55.054Z,27.27
2019-04-14T20:25:34.002Z,27.60
2019-04-14T20:28:16.402Z,29.37
2019-04-14T20:30:46.577Z,25.43
2019-04-14T20:33:15.067Z,26.23
2019-04-14T20:35:43.528Z,27.10
2019-04-14T20:38:12.033Z,26.33
2019-04-14T20:40:40.578Z,26.47
2019-04-14T20:43:09.055Z,27.80
2019-04-14T20:45:37.595Z,21.67
2019-04-14T20:48:06.090Z,22.00
2019-04-14T20:50:34.563Z,25.03
2019-04-14T20:53:03.132Z,25.20
2019-04-14T20:55:31.619Z,23.03
2019-04-14T20:58:00.098Z,24.47
2019-04-14T21:00:28.793Z,22.63
2019-04-14T21:03:01.911Z,22.27
2019-04-14T21:05:43.612Z,20.00
2019-04-14T21:08:25.517Z,32.53
2019-04-14T21:10:55.674Z,23.17
2019-04-14T21:13:25.841Z,18.40
2019-04-14T21:16:12.529Z,19.45
2019-04-14T21:18:37.173Z,21.20
2019-04-14T21:21:13.335Z,16.60
2019-04-14T21:23:59.792Z,16.30
2019-04-14T21:26:29.906Z,19.93
2019-04-14T21:29:11.740Z,18.97
2019-04-14T21:31:41.942Z,17.90
2019-04-14T21:34:14.816Z,17.93
2019-04-14T21:37:01.682Z,16.93
2019-04-14T21:39:31.788Z,18.30
2019-04-14T21:42:00.879Z,17.85
2019-04-14T21:44:29.384Z,17.23
2019-04-14T21:46:57.936Z,16.37
2019-04-14T21:49:26.419Z,16.67
2019-04-14T21:52:14.958Z,15.20
2019-04-14T21:54:44.598Z,16.63
2019-04-14T21:57:14.737Z,17.87
2019-04-14T22:00:02.094Z,17.50
2019-04-14T22:02:48.723Z,17.37
2019-04-14T22:05:24.675Z,17.90
2019-04-14T22:08:00.539Z,19.57
2019-04-14T22:10:31.074Z,18.00
2019-04-14T22:13:00.143Z,18.52
2019-04-14T22:15:28.665Z,18.13
2019-04-14T22:17:57.137Z,17.93
2019-04-14T22:20:25.625Z,16.50
2019-04-14T22:22:54.173Z,15.93
2019-04-14T22:25:22.633Z,18.80
2019-04-14T22:27:51.679Z,18.35
2019-04-14T22:30:20.294Z,15.53
2019-04-14T22:32:48.775Z,17.67
2019-04-14T22:35:17.242Z,18.40
2019-04-14T22:37:45.745Z,16.00
2019-04-14T22:40:14.559Z,19.50
2019-04-14T22:42:43.026Z,16.17
2019-04-14T22:45:11.952Z,17.35
2019-04-14T22:47:40.453Z,18.47
2019-04-14T22:50:09.167Z,18.47
2019-04-14T22:52:37.709Z,15.80
2019-04-14T22:55:07.846Z,18.93
2019-04-14T22:57:36.321Z,17.92
2019-04-14T23:00:08.451Z,17.03
2019-04-14T23:02:47.794Z,16.07
2019-04-14T23:05:24.139Z,17.87
2019-04-14T23:07:57.295Z,17.70
2019-04-14T23:10:31.164Z,18.20
2019-04-14T23:13:10.321Z,17.27
2019-04-14T23:15:55.742Z,18.33
2019-04-14T23:18:44.116Z,16.43
2019-04-14T23:21:14.232Z,18.00
2019-04-14T23:23:47.014Z,18.20
2019-04-14T23:26:15.480Z,17.27
2019-04-14T23:28:43.940Z,18.07
2019-04-14T23:31:12.424Z,19.80
2019-04-14T23:33:40.888Z,16.60
2019-04-14T23:36:09.579Z,17.43
2019-04-14T23:38:38.228Z,18.80
2019-04-14T23:41:06.782Z,16.23
2019-04-14T23:43:35.254Z,17.50
2019-04-14T23:46:03.816Z,16.27
2019-04-14T23:48:32.354Z,17.80
2019-04-14T23:51:00.918Z,18.93
2019-04-14T23:53:29.580Z,17.30
2019-04-14T23:55:58.071Z,16.47
2019-04-14T23:58:26.521Z,16.03
